sensor_id;sensor_type;location;lat;lon;timestamp;pressure;altitude;pressure_sealevel;temperature;humidity
35716;BME280;21840;44.920;8.616;2023-08-01T00:01:30;99662.53;;;30.66;37.10
35716;BME280;21840;44.920;8.616;2023-08-01T00:03:55;99657.38;;;30.64;37.59
35716;BME280;21840;44.920;8.616;2023-08-01T00:06:21;99649.50;;;30.68;37.34
35716;BME280;21840;44.920;8.616;2023-08-01T00:08:48;99645.41;;;30.70;37.62
35716;BME280;21840;44.920;8.616;2023-08-01T00:11:16;99637.38;;;30.31;38.17
35716;BME280;21840;44.920;8.616;2023-08-01T00:13:42;99648.13;;;30.41;38.21
35716;BME280;21840;44.920;8.616;2023-08-01T00:16:08;99642.66;;;30.46;38.56
35716;BME280;21840;44.920;8.616;2023-08-01T00:18:34;99637.97;;;30.52;38.70
35716;BME280;21840;44.920;8.616;2023-08-01T00:20:59;99635.09;;;30.43;37.78
35716;BME280;21840;44.920;8.616;2023-08-01T00:23:25;99637.03;;;30.38;38.19
35716;BME280;21840;44.920;8.616;2023-08-01T00:25:50;99635.38;;;30.42;38.44
35716;BME280;21840;44.920;8.616;2023-08-01T00:28:21;99625.75;;;30.20;38.47
35716;BME280;21840;44.920;8.616;2023-08-01T00:30:47;99617.25;;;30.37;38.00
35716;BME280;21840;44.920;8.616;2023-08-01T00:33:12;99620.69;;;30.48;37.50
35716;BME280;21840;44.920;8.616;2023-08-01T00:35:38;99621.19;;;30.50;37.51
35716;BME280;21840;44.920;8.616;2023-08-01T00:38:04;99615.53;;;30.12;38.47
35716;BME280;21840;44.920;8.616;2023-08-01T00:40:34;99622.53;;;30.18;38.56
35716;BME280;21840;44.920;8.616;2023-08-01T00:43:00;99615.78;;;30.16;38.99
35716;BME280;21840;44.920;8.616;2023-08-01T00:45:29;99611.66;;;30.28;38.76
35716;BME280;21840;44.920;8.616;2023-08-01T00:47:58;99603.00;;;30.21;39.02
35716;BME280;21840;44.920;8.616;2023-08-01T00:50:23;99599.13;;;30.33;39.23
35716;BME280;21840;44.920;8.616;2023-08-01T00:52:51;99595.28;;;30.04;38.91
35716;BME280;21840;44.920;8.616;2023-08-01T00:55:18;99588.75;;;30.10;38.39
35716;BME280;21840;44.920;8.616;2023-08-01T00:57:44;99591.41;;;30.16;38.34
35716;BME280;21840;44.920;8.616;2023-08-01T01:00:09;99579.47;;;30.17;38.08
35716;BME280;21840;44.920;8.616;2023-08-01T01:02:36;99577.00;;;30.20;38.16
35716;BME280;21840;44.920;8.616;2023-08-01T01:05:02;99578.25;;;30.04;37.92
35716;BME280;21840;44.920;8.616;2023-08-01T01:07:29;99568.75;;;30.06;38.01
35716;BME280;21840;44.920;8.616;2023-08-01T01:09:56;99565.41;;;29.85;37.86
35716;BME280;21840;44.920;8.616;2023-08-01T01:12:21;99575.50;;;30.09;38.08
35716;BME280;21840;44.920;8.616;2023-08-01T01:14:47;99580.00;;;30.19;37.83
35716;BME280;21840;44.920;8.616;2023-08-01T01:17:13;99574.72;;;30.03;37.78
35716;BME280;21840;44.920;8.616;2023-08-01T01:19:38;99583.56;;;29.80;38.34
35716;BME280;21840;44.920;8.616;2023-08-01T01:22:05;99584.53;;;29.50;38.91
35716;BME280;21840;44.920;8.616;2023-08-01T01:24:32;99582.59;;;29.65;39.30
35716;BME280;21840;44.920;8.616;2023-08-01T01:26:58;99590.28;;;29.33;39.76
35716;BME280;21840;44.920;8.616;2023-08-01T01:29:27;99578.06;;;29.45;39.86
35716;BME280;21840;44.920;8.616;2023-08-01T01:31:53;99575.72;;;29.78;39.20
35716;BME280;21840;44.920;8.616;2023-08-01T01:34:19;99571.16;;;29.74;39.10
35716;BME280;21840;44.920;8.616;2023-08-01T01:36:44;99567.59;;;29.78;39.08
35716;BME280;21840;44.920;8.616;2023-08-01T01:39:10;99557.63;;;29.74;39.36
35716;BME280;21840;44.920;8.616;2023-08-01T01:41:35;99558.72;;;29.67;38.80
35716;BME280;21840;44.920;8.616;2023-08-01T01:44:01;99536.66;;;29.89;38.82
35716;BME280;21840;44.920;8.616;2023-08-01T01:46:26;99534.53;;;29.86;38.51
35716;BME280;21840;44.920;8.616;2023-08-01T01:48:52;99524.22;;;29.88;38.28
35716;BME280;21840;44.920;8.616;2023-08-01T01:51:17;99506.22;;;30.03;38.27
35716;BME280;21840;44.920;8.616;2023-08-01T01:53:42;99511.72;;;29.93;38.22
35716;BME280;21840;44.920;8.616;2023-08-01T01:56:09;99496.19;;;29.74;38.54
35716;BME280;21840;44.920;8.616;2023-08-01T01:58:35;99502.13;;;29.76;38.72
35716;BME280;21840;44.920;8.616;2023-08-01T02:01:00;99503.25;;;29.70;38.93
35716;BME280;21840;44.920;8.616;2023-08-01T02:03:26;99510.78;;;29.78;38.73
35716;BME280;21840;44.920;8.616;2023-08-01T02:05:52;99513.84;;;29.66;38.50
35716;BME280;21840;44.920;8.616;2023-08-01T02:08:18;99518.97;;;29.68;38.86
35716;BME280;21840;44.920;8.616;2023-08-01T02:10:43;99501.09;;;29.67;38.40
35716;BME280;21840;44.920;8.616;2023-08-01T02:13:09;99495.69;;;29.67;38.57
35716;BME280;21840;44.920;8.616;2023-08-01T02:15:34;99493.97;;;29.81;38.24
35716;BME280;21840;44.920;8.616;2023-08-01T02:18:00;99491.91;;;29.68;38.66
35716;BME280;21840;44.920;8.616;2023-08-01T02:20:25;99486.50;;;29.68;38.57
35716;BME280;21840;44.920;8.616;2023-08-01T02:22:52;99484.34;;;29.60;38.74
35716;BME280;21840;44.920;8.616;2023-08-01T02:25:17;99489.47;;;29.66;38.47
35716;BME280;21840;44.920;8.616;2023-08-01T02:27:43;99490.00;;;29.69;38.33
35716;BME280;21840;44.920;8.616;2023-08-01T02:30:09;99490.63;;;29.50;38.97
35716;BME280;21840;44.920;8.616;2023-08-01T02:32:34;99485.53;;;29.49;38.93
35716;BME280;21840;44.920;8.616;2023-08-01T02:35:00;99483.84;;;29.53;38.54
35716;BME280;21840;44.920;8.616;2023-08-01T02:37:25;99488.16;;;29.59;38.44
35716;BME280;21840;44.920;8.616;2023-08-01T02:39:50;99489.56;;;29.51;38.67
35716;BME280;21840;44.920;8.616;2023-08-01T02:42:16;99496.31;;;29.54;38.75
35716;BME280;21840;44.920;8.616;2023-08-01T02:44:41;99502.91;;;29.37;38.98
35716;BME280;21840;44.920;8.616;2023-08-01T02:47:07;99502.38;;;29.35;38.61
35716;BME280;21840;44.920;8.616;2023-08-01T02:49:32;99498.69;;;29.60;38.44
35716;BME280;21840;44.920;8.616;2023-08-01T02:51:58;99502.88;;;29.42;38.64
35716;BME280;21840;44.920;8.616;2023-08-01T02:54:24;99495.28;;;29.44;38.81
35716;BME280;21840;44.920;8.616;2023-08-01T02:56:50;99484.38;;;29.55;38.98
35716;BME280;21840;44.920;8.616;2023-08-01T02:59:16;99474.94;;;29.52;38.71
35716;BME280;21840;44.920;8.616;2023-08-01T03:01:43;99479.56;;;29.52;38.71
35716;BME280;21840;44.920;8.616;2023-08-01T03:04:09;99469.19;;;29.64;38.66
35716;BME280;21840;44.920;8.616;2023-08-01T03:06:37;99457.53;;;29.69;38.87
35716;BME280;21840;44.920;8.616;2023-08-01T03:09:03;99466.03;;;29.52;38.97
35716;BME280;21840;44.920;8.616;2023-08-01T03:11:31;99471.34;;;29.67;38.32
35716;BME280;21840;44.920;8.616;2023-08-01T03:13:56;99479.75;;;29.65;38.95
35716;BME280;21840;44.920;8.616;2023-08-01T03:16:22;99474.56;;;29.69;38.60
35716;BME280;21840;44.920;8.616;2023-08-01T03:18:48;99474.19;;;29.46;38.95
35716;BME280;21840;44.920;8.616;2023-08-01T03:21:16;99476.34;;;29.44;39.34
35716;BME280;21840;44.920;8.616;2023-08-01T03:23:41;99476.81;;;29.57;39.10
35716;BME280;21840;44.920;8.616;2023-08-01T03:26:07;99478.09;;;29.64;38.77
35716;BME280;21840;44.920;8.616;2023-08-01T03:28:32;99483.50;;;29.64;38.91
35716;BME280;21840;44.920;8.616;2023-08-01T03:30:58;99489.44;;;29.72;38.85
35716;BME280;21840;44.920;8.616;2023-08-01T03:33:24;99480.50;;;29.71;38.75
35716;BME280;21840;44.920;8.616;2023-08-01T03:35:50;99475.44;;;29.59;39.11
35716;BME280;21840;44.920;8.616;2023-08-01T03:38:15;99461.91;;;29.59;38.70
35716;BME280;21840;44.920;8.616;2023-08-01T03:40:41;99462.75;;;29.55;38.77
35716;BME280;21840;44.920;8.616;2023-08-01T03:43:06;99464.06;;;29.57;39.06
35716;BME280;21840;44.920;8.616;2023-08-01T03:45:37;99466.06;;;29.46;39.16
35716;BME280;21840;44.920;8.616;2023-08-01T03:48:02;99470.22;;;29.73;38.66
35716;BME280;21840;44.920;8.616;2023-08-01T03:50:28;99462.16;;;29.68;38.67
35716;BME280;21840;44.920;8.616;2023-08-01T03:52:53;99463.19;;;29.72;38.86
35716;BME280;21840;44.920;8.616;2023-08-01T03:55:19;99457.22;;;29.70;38.62
35716;BME280;21840;44.920;8.616;2023-08-01T03:57:47;99462.22;;;29.53;39.31
35716;BME280;21840;44.920;8.616;2023-08-01T04:00:13;99457.75;;;29.72;39.03
35716;BME280;21840;44.920;8.616;2023-08-01T04:02:43;99466.22;;;29.65;39.09
35716;BME280;21840;44.920;8.616;2023-08-01T04:05:10;99479.94;;;29.74;39.20
35716;BME280;21840;44.920;8.616;2023-08-01T04:07:37;99475.59;;;29.78;39.14
35716;BME280;21840;44.920;8.616;2023-08-01T04:10:03;99474.06;;;29.62;39.24
35716;BME280;21840;44.920;8.616;2023-08-01T04:12:30;99481.78;;;29.39;39.58
35716;BME280;21840;44.920;8.616;2023-08-01T04:14:56;99483.53;;;29.59;39.10
35716;BME280;21840;44.920;8.616;2023-08-01T04:17:21;99489.22;;;29.68;38.83
35716;BME280;21840;44.920;8.616;2023-08-01T04:19:47;99488.47;;;29.52;39.55
35716;BME280;21840;44.920;8.616;2023-08-01T04:22:12;99494.31;;;29.70;39.56
35716;BME280;21840;44.920;8.616;2023-08-01T04:24:37;99498.69;;;29.60;39.40
35716;BME280;21840;44.920;8.616;2023-08-01T04:27:03;99499.75;;;29.20;40.28
35716;BME280;21840;44.920;8.616;2023-08-01T04:29:30;99502.03;;;29.47;40.36
35716;BME280;21840;44.920;8.616;2023-08-01T04:31:56;99501.69;;;29.59;40.61
35716;BME280;21840;44.920;8.616;2023-08-01T04:34:21;99494.91;;;29.61;40.75
35716;BME280;21840;44.920;8.616;2023-08-01T04:36:47;99505.16;;;29.70;40.80
35716;BME280;21840;44.920;8.616;2023-08-01T04:39:12;99497.03;;;29.64;40.88
35716;BME280;21840;44.920;8.616;2023-08-01T04:41:38;99492.72;;;29.69;40.41
35716;BME280;21840;44.920;8.616;2023-08-01T04:44:03;99480.75;;;29.75;40.67
35716;BME280;21840;44.920;8.616;2023-08-01T04:46:29;99482.59;;;29.79;40.38
35716;BME280;21840;44.920;8.616;2023-08-01T04:48:54;99487.78;;;29.76;40.47
35716;BME280;21840;44.920;8.616;2023-08-01T04:51:20;99491.09;;;29.67;40.59
35716;BME280;21840;44.920;8.616;2023-08-01T04:53:45;99489.63;;;29.80;40.10
35716;BME280;21840;44.920;8.616;2023-08-01T04:56:11;99479.00;;;29.89;40.23
35716;BME280;21840;44.920;8.616;2023-08-01T04:58:36;99463.66;;;29.79;40.17
35716;BME280;21840;44.920;8.616;2023-08-01T05:01:01;99463.47;;;30.00;40.11
35716;BME280;21840;44.920;8.616;2023-08-01T05:03:27;99460.38;;;29.82;40.11
35716;BME280;21840;44.920;8.616;2023-08-01T05:05:52;99451.63;;;29.96;39.46
35716;BME280;21840;44.920;8.616;2023-08-01T05:08:18;99460.97;;;29.79;39.46
35716;BME280;21840;44.920;8.616;2023-08-01T05:10:43;99458.47;;;29.88;39.84
35716;BME280;21840;44.920;8.616;2023-08-01T05:13:08;99443.19;;;29.63;39.85
35716;BME280;21840;44.920;8.616;2023-08-01T05:15:34;99435.59;;;29.65;39.96
35716;BME280;21840;44.920;8.616;2023-08-01T05:17:59;99435.97;;;29.87;39.65
35716;BME280;21840;44.920;8.616;2023-08-01T05:20:25;99436.81;;;29.88;40.01
35716;BME280;21840;44.920;8.616;2023-08-01T05:22:57;99435.38;;;29.96;39.63
35716;BME280;21840;44.920;8.616;2023-08-01T05:25:22;99447.38;;;30.14;39.82
35716;BME280;21840;44.920;8.616;2023-08-01T05:27:48;99439.41;;;29.98;39.75
35716;BME280;21840;44.920;8.616;2023-08-01T05:30:13;99444.09;;;29.87;40.34
35716;BME280;21840;44.920;8.616;2023-08-01T05:32:39;99445.38;;;29.95;40.29
35716;BME280;21840;44.920;8.616;2023-08-01T05:35:06;99449.28;;;30.13;39.86
35716;BME280;21840;44.920;8.616;2023-08-01T05:37:32;99433.91;;;30.33;39.85
35716;BME280;21840;44.920;8.616;2023-08-01T05:39:57;99425.84;;;30.51;39.25
35716;BME280;21840;44.920;8.616;2023-08-01T05:42:23;99424.91;;;30.37;39.47
35716;BME280;21840;44.920;8.616;2023-08-01T05:44:48;99414.38;;;30.36;39.82
35716;BME280;21840;44.920;8.616;2023-08-01T05:47:14;99408.78;;;30.51;39.68
35716;BME280;21840;44.920;8.616;2023-08-01T05:49:39;99407.25;;;30.64;39.55
35716;BME280;21840;44.920;8.616;2023-08-01T05:52:06;99402.56;;;30.69;39.39
35716;BME280;21840;44.920;8.616;2023-08-01T05:54:32;99404.53;;;30.64;39.50
35716;BME280;21840;44.920;8.616;2023-08-01T05:56:58;99419.25;;;30.58;39.82
35716;BME280;21840;44.920;8.616;2023-08-01T05:59:23;99421.91;;;30.82;39.51
35716;BME280;21840;44.920;8.616;2023-08-01T06:01:49;99437.78;;;30.50;40.41
35716;BME280;21840;44.920;8.616;2023-08-01T06:04:14;99440.84;;;30.63;40.57
35716;BME280;21840;44.920;8.616;2023-08-01T06:06:40;99442.19;;;30.65;40.75
35716;BME280;21840;44.920;8.616;2023-08-01T06:09:08;99448.84;;;30.54;41.19
35716;BME280;21840;44.920;8.616;2023-08-01T06:11:33;99449.34;;;30.99;40.08
35716;BME280;21840;44.920;8.616;2023-08-01T06:14:00;99464.88;;;31.12;39.64
35716;BME280;21840;44.920;8.616;2023-08-01T06:16:25;99468.56;;;31.22;39.31
35716;BME280;21840;44.920;8.616;2023-08-01T06:18:51;99467.19;;;31.43;39.21
35716;BME280;21840;44.920;8.616;2023-08-01T06:21:16;99468.00;;;31.44;39.13
35716;BME280;21840;44.920;8.616;2023-08-01T06:23:42;99476.53;;;31.70;38.98
35716;BME280;21840;44.920;8.616;2023-08-01T06:26:07;99479.91;;;31.62;39.22
35716;BME280;21840;44.920;8.616;2023-08-01T06:28:32;99479.34;;;31.27;39.42
35716;BME280;21840;44.920;8.616;2023-08-01T06:30:58;99484.19;;;31.68;38.98
35716;BME280;21840;44.920;8.616;2023-08-01T06:33:23;99481.84;;;31.42;39.57
35716;BME280;21840;44.920;8.616;2023-08-01T06:35:49;99475.78;;;31.83;38.79
35716;BME280;21840;44.920;8.616;2023-08-01T06:38:14;99468.38;;;31.70;39.16
35716;BME280;21840;44.920;8.616;2023-08-01T06:40:40;99461.25;;;32.07;38.38
35716;BME280;21840;44.920;8.616;2023-08-01T06:43:05;99456.66;;;32.21;37.85
35716;BME280;21840;44.920;8.616;2023-08-01T06:45:31;99451.69;;;31.95;38.58
35716;BME280;21840;44.920;8.616;2023-08-01T06:47:56;99455.53;;;32.08;38.39
35716;BME280;21840;44.920;8.616;2023-08-01T06:50:22;99440.44;;;32.43;37.89
35716;BME280;21840;44.920;8.616;2023-08-01T06:52:47;99442.66;;;32.14;38.36
35716;BME280;21840;44.920;8.616;2023-08-01T06:55:12;99443.63;;;31.90;39.25
35716;BME280;21840;44.920;8.616;2023-08-01T06:57:38;99435.78;;;32.02;38.71
35716;BME280;21840;44.920;8.616;2023-08-01T07:00:04;99434.88;;;31.93;38.88
35716;BME280;21840;44.920;8.616;2023-08-01T07:02:29;99437.63;;;32.07;39.03
35716;BME280;21840;44.920;8.616;2023-08-01T07:04:55;99446.78;;;32.39;38.53
35716;BME280;21840;44.920;8.616;2023-08-01T07:07:20;99450.22;;;32.31;38.55
35716;BME280;21840;44.920;8.616;2023-08-01T07:09:46;99464.00;;;32.62;38.09
35716;BME280;21840;44.920;8.616;2023-08-01T07:12:11;99467.25;;;32.78;37.85
35716;BME280;21840;44.920;8.616;2023-08-01T07:14:37;99464.25;;;33.02;37.08
35716;BME280;21840;44.920;8.616;2023-08-01T07:17:02;99452.81;;;32.77;37.62
35716;BME280;21840;44.920;8.616;2023-08-01T07:19:27;99449.63;;;32.75;37.81
35716;BME280;21840;44.920;8.616;2023-08-01T07:21:53;99453.91;;;33.04;37.41
35716;BME280;21840;44.920;8.616;2023-08-01T07:24:18;99452.34;;;33.25;36.81
35716;BME280;21840;44.920;8.616;2023-08-01T07:26:44;99438.84;;;33.43;36.35
35716;BME280;21840;44.920;8.616;2023-08-01T07:29:09;99431.66;;;33.69;35.96
35716;BME280;21840;44.920;8.616;2023-08-01T07:31:37;99428.28;;;33.64;35.82
35716;BME280;21840;44.920;8.616;2023-08-01T07:34:02;99412.03;;;33.81;35.68
35716;BME280;21840;44.920;8.616;2023-08-01T07:36:28;99402.28;;;33.80;35.53
35716;BME280;21840;44.920;8.616;2023-08-01T07:38:53;99385.59;;;33.82;35.59
35716;BME280;21840;44.920;8.616;2023-08-01T07:41:21;99390.16;;;33.64;35.81
35716;BME280;21840;44.920;8.616;2023-08-01T07:43:46;99387.59;;;33.99;35.53
35716;BME280;21840;44.920;8.616;2023-08-01T07:46:12;99379.56;;;33.93;35.55
35716;BME280;21840;44.920;8.616;2023-08-01T07:48:38;99369.88;;;33.70;36.13
35716;BME280;21840;44.920;8.616;2023-08-01T07:51:03;99371.09;;;34.04;35.72
35716;BME280;21840;44.920;8.616;2023-08-01T07:53:30;99348.16;;;33.96;35.64
35716;BME280;21840;44.920;8.616;2023-08-01T07:55:56;99363.44;;;34.06;35.22
35716;BME280;21840;44.920;8.616;2023-08-01T07:58:24;99365.38;;;34.63;34.68
35716;BME280;21840;44.920;8.616;2023-08-01T08:00:49;99375.97;;;34.73;34.32
35716;BME280;21840;44.920;8.616;2023-08-01T08:03:15;99377.56;;;34.91;33.58
35716;BME280;21840;44.920;8.616;2023-08-01T08:05:40;99373.72;;;34.92;33.55
35716;BME280;21840;44.920;8.616;2023-08-01T08:08:09;99369.66;;;34.55;33.86
35716;BME280;21840;44.920;8.616;2023-08-01T08:10:34;99390.09;;;34.75;33.28
35716;BME280;21840;44.920;8.616;2023-08-01T08:13:00;99374.00;;;34.65;33.42
35716;BME280;21840;44.920;8.616;2023-08-01T08:15:25;99369.19;;;34.62;33.76
35716;BME280;21840;44.920;8.616;2023-08-01T08:17:51;99362.47;;;34.68;33.25
35716;BME280;21840;44.920;8.616;2023-08-01T08:20:16;99356.31;;;34.36;33.64
35716;BME280;21840;44.920;8.616;2023-08-01T08:22:42;99362.72;;;34.31;33.71
35716;BME280;21840;44.920;8.616;2023-08-01T08:25:07;99359.09;;;34.62;33.39
35716;BME280;21840;44.920;8.616;2023-08-01T08:27:33;99354.25;;;34.50;33.54
35716;BME280;21840;44.920;8.616;2023-08-01T08:29:58;99349.72;;;34.37;33.35
35716;BME280;21840;44.920;8.616;2023-08-01T08:32:24;99352.47;;;34.46;33.35
35716;BME280;21840;44.920;8.616;2023-08-01T08:34:49;99345.56;;;34.40;33.48
35716;BME280;21840;44.920;8.616;2023-08-01T08:37:15;99354.22;;;34.42;33.23
35716;BME280;21840;44.920;8.616;2023-08-01T08:39:40;99354.25;;;34.50;33.19
35716;BME280;21840;44.920;8.616;2023-08-01T08:42:06;99350.69;;;34.24;33.61
35716;BME280;21840;44.920;8.616;2023-08-01T08:44:35;99351.13;;;34.17;33.64
35716;BME280;21840;44.920;8.616;2023-08-01T08:47:08;99347.38;;;33.96;33.99
35716;BME280;21840;44.920;8.616;2023-08-01T08:49:36;99360.13;;;34.26;33.61
35716;BME280;21840;44.920;8.616;2023-08-01T08:52:02;99358.28;;;34.53;32.67
35716;BME280;21840;44.920;8.616;2023-08-01T08:54:30;99339.84;;;34.67;32.44
35716;BME280;21840;44.920;8.616;2023-08-01T08:56:55;99346.44;;;34.75;32.31
35716;BME280;21840;44.920;8.616;2023-08-01T08:59:21;99335.19;;;34.94;32.04
35716;BME280;21840;44.920;8.616;2023-08-01T09:01:48;99330.72;;;34.63;32.55
35716;BME280;21840;44.920;8.616;2023-08-01T09:04:14;99316.56;;;34.52;32.82
35716;BME280;21840;44.920;8.616;2023-08-01T09:06:49;99325.19;;;34.37;32.97
35716;BME280;21840;44.920;8.616;2023-08-01T09:09:15;99327.16;;;34.45;32.72
35716;BME280;21840;44.920;8.616;2023-08-01T09:11:50;99316.56;;;34.44;32.79
35716;BME280;21840;44.920;8.616;2023-08-01T09:14:17;99318.31;;;34.31;33.12
35716;BME280;21840;44.920;8.616;2023-08-01T09:16:44;99302.94;;;34.44;32.61
35716;BME280;21840;44.920;8.616;2023-08-01T09:19:10;99296.38;;;34.88;31.94
35716;BME280;21840;44.920;8.616;2023-08-01T09:21:39;99292.16;;;35.08;31.20
35716;BME280;21840;44.920;8.616;2023-08-01T09:24:13;99300.94;;;35.40;30.61
35716;BME280;21840;44.920;8.616;2023-08-01T09:26:39;99294.09;;;35.25;30.95
35716;BME280;21840;44.920;8.616;2023-08-01T09:29:08;99293.91;;;35.30;30.56
35716;BME280;21840;44.920;8.616;2023-08-01T09:31:38;99300.47;;;35.76;30.21
35716;BME280;21840;44.920;8.616;2023-08-01T09:34:05;99293.13;;;36.27;29.09
35716;BME280;21840;44.920;8.616;2023-08-01T09:36:32;99286.47;;;36.58;29.22
35716;BME280;21840;44.920;8.616;2023-08-01T09:38:59;99269.78;;;36.72;29.11
35716;BME280;21840;44.920;8.616;2023-08-01T09:41:25;99275.44;;;36.46;28.84
35716;BME280;21840;44.920;8.616;2023-08-01T09:43:50;99285.13;;;36.22;29.69
35716;BME280;21840;44.920;8.616;2023-08-01T09:46:16;99280.41;;;36.02;30.06
35716;BME280;21840;44.920;8.616;2023-08-01T09:48:41;99290.72;;;35.67;30.08
35716;BME280;21840;44.920;8.616;2023-08-01T09:53:34;99292.00;;;36.28;29.58
35716;BME280;21840;44.920;8.616;2023-08-01T09:56:00;99294.94;;;36.23;29.83
35716;BME280;21840;44.920;8.616;2023-08-01T09:58:33;99296.91;;;36.14;29.57
35716;BME280;21840;44.920;8.616;2023-08-01T10:01:00;99288.13;;;36.71;29.14
35716;BME280;21840;44.920;8.616;2023-08-01T10:03:29;99283.53;;;36.42;29.45
35716;BME280;21840;44.920;8.616;2023-08-01T10:05:56;99284.06;;;36.36;29.65
35716;BME280;21840;44.920;8.616;2023-08-01T10:08:24;99289.53;;;36.57;28.91
35716;BME280;21840;44.920;8.616;2023-08-01T10:10:51;99272.94;;;35.90;29.69
35716;BME280;21840;44.920;8.616;2023-08-01T10:13:20;99278.31;;;36.28;29.29
35716;BME280;21840;44.920;8.616;2023-08-01T10:15:49;99278.19;;;36.25;29.51
35716;BME280;21840;44.920;8.616;2023-08-01T10:18:16;99265.91;;;36.31;29.30
35716;BME280;21840;44.920;8.616;2023-08-01T10:20:43;99263.38;;;36.47;28.63
35716;BME280;21840;44.920;8.616;2023-08-01T10:23:12;99262.38;;;36.52;28.84
35716;BME280;21840;44.920;8.616;2023-08-01T10:25:38;99250.16;;;36.49;28.53
35716;BME280;21840;44.920;8.616;2023-08-01T10:28:05;99245.69;;;36.44;28.91
35716;BME280;21840;44.920;8.616;2023-08-01T10:30:31;99241.06;;;36.45;29.15
35716;BME280;21840;44.920;8.616;2023-08-01T10:32:58;99236.16;;;36.71;28.58
35716;BME280;21840;44.920;8.616;2023-08-01T10:35:50;99233.84;;;36.61;29.16
35716;BME280;21840;44.920;8.616;2023-08-01T10:38:17;99235.66;;;36.15;29.46
35716;BME280;21840;44.920;8.616;2023-08-01T10:40:43;99236.44;;;36.37;28.92
35716;BME280;21840;44.920;8.616;2023-08-01T10:43:22;99234.59;;;36.28;29.45
35716;BME280;21840;44.920;8.616;2023-08-01T10:45:48;99238.22;;;35.91;29.60
35716;BME280;21840;44.920;8.616;2023-08-01T10:48:14;99231.03;;;36.49;29.27
35716;BME280;21840;44.920;8.616;2023-08-01T10:50:39;99232.16;;;36.69;28.93
35716;BME280;21840;44.920;8.616;2023-08-01T10:53:09;99229.84;;;36.92;28.19
35716;BME280;21840;44.920;8.616;2023-08-01T10:55:44;99231.91;;;36.95;28.16
35716;BME280;21840;44.920;8.616;2023-08-01T10:58:10;99234.78;;;36.65;28.52
35716;BME280;21840;44.920;8.616;2023-08-01T11:00:36;99209.69;;;36.63;28.79
35716;BME280;21840;44.920;8.616;2023-08-01T11:03:02;99207.91;;;36.80;28.23
35716;BME280;21840;44.920;8.616;2023-08-01T11:05:28;99203.13;;;36.89;28.68
35716;BME280;21840;44.920;8.616;2023-08-01T11:08:02;99182.16;;;36.81;28.67
35716;BME280;21840;44.920;8.616;2023-08-01T11:10:32;99188.28;;;36.44;29.10
35716;BME280;21840;44.920;8.616;2023-08-01T11:12:58;99186.22;;;37.08;28.48
35716;BME280;21840;44.920;8.616;2023-08-01T11:15:24;99187.47;;;37.35;27.56
35716;BME280;21840;44.920;8.616;2023-08-01T11:17:53;99196.50;;;37.60;27.58
35716;BME280;21840;44.920;8.616;2023-08-01T11:20:22;99182.22;;;37.05;27.82
35716;BME280;21840;44.920;8.616;2023-08-01T11:22:56;99168.59;;;36.97;27.99
35716;BME280;21840;44.920;8.616;2023-08-01T11:25:37;99168.03;;;37.03;27.62
35716;BME280;21840;44.920;8.616;2023-08-01T11:28:05;99158.06;;;36.74;28.13
35716;BME280;21840;44.920;8.616;2023-08-01T11:30:32;99172.19;;;37.59;26.94
35716;BME280;21840;44.920;8.616;2023-08-01T11:32:58;99167.59;;;38.15;26.33
35716;BME280;21840;44.920;8.616;2023-08-01T11:35:26;99164.41;;;38.13;26.21
35716;BME280;21840;44.920;8.616;2023-08-01T11:37:52;99175.56;;;37.80;26.69
35716;BME280;21840;44.920;8.616;2023-08-01T11:40:18;99182.66;;;37.69;26.97
35716;BME280;21840;44.920;8.616;2023-08-01T11:42:49;99176.59;;;38.28;25.97
35716;BME280;21840;44.920;8.616;2023-08-01T11:45:16;99174.22;;;38.42;25.65
35716;BME280;21840;44.920;8.616;2023-08-01T11:47:46;99169.53;;;38.43;25.84
35716;BME280;21840;44.920;8.616;2023-08-01T11:50:12;99167.28;;;38.45;25.54
35716;BME280;21840;44.920;8.616;2023-08-01T11:52:40;99167.66;;;38.59;25.60
35716;BME280;21840;44.920;8.616;2023-08-01T11:55:06;99158.56;;;38.43;25.75
35716;BME280;21840;44.920;8.616;2023-08-01T11:57:32;99157.69;;;38.11;26.24
35716;BME280;21840;44.920;8.616;2023-08-01T11:59:57;99162.72;;;38.65;25.41
35716;BME280;21840;44.920;8.616;2023-08-01T12:04:49;99147.34;;;38.92;25.30
35716;BME280;21840;44.920;8.616;2023-08-01T12:07:15;99155.44;;;38.57;25.63
35716;BME280;21840;44.920;8.616;2023-08-01T12:09:44;99148.84;;;38.90;25.20
35716;BME280;21840;44.920;8.616;2023-08-01T12:12:10;99148.59;;;38.95;25.22
35716;BME280;21840;44.920;8.616;2023-08-01T12:14:40;99153.25;;;38.78;25.22
35716;BME280;21840;44.920;8.616;2023-08-01T12:17:06;99153.28;;;38.94;25.12
35716;BME280;21840;44.920;8.616;2023-08-01T12:19:31;99144.69;;;37.95;26.19
35716;BME280;21840;44.920;8.616;2023-08-01T12:21:59;99146.25;;;38.81;25.52
35716;BME280;21840;44.920;8.616;2023-08-01T12:24:24;99147.22;;;38.29;26.12
35716;BME280;21840;44.920;8.616;2023-08-01T12:26:50;99141.88;;;38.20;26.13
35716;BME280;21840;44.920;8.616;2023-08-01T12:29:15;99152.28;;;37.49;26.85
35716;BME280;21840;44.920;8.616;2023-08-01T12:31:41;99150.16;;;37.55;27.06
35716;BME280;21840;44.920;8.616;2023-08-01T12:34:06;99142.16;;;37.50;26.95
35716;BME280;21840;44.920;8.616;2023-08-01T12:36:31;99152.44;;;37.53;27.07
35716;BME280;21840;44.920;8.616;2023-08-01T12:38:57;99153.38;;;37.57;26.86
35716;BME280;21840;44.920;8.616;2023-08-01T12:41:22;99153.22;;;37.66;26.69
35716;BME280;21840;44.920;8.616;2023-08-01T12:43:50;99151.41;;;37.58;26.92
35716;BME280;21840;44.920;8.616;2023-08-01T12:46:16;99150.63;;;37.57;26.48
35716;BME280;21840;44.920;8.616;2023-08-01T12:48:41;99145.88;;;37.82;26.20
35716;BME280;21840;44.920;8.616;2023-08-01T12:51:08;99135.63;;;38.19;26.05
35716;BME280;21840;44.920;8.616;2023-08-01T12:53:33;99130.22;;;38.23;25.70
35716;BME280;21840;44.920;8.616;2023-08-01T12:56:04;99124.84;;;37.86;25.97
35716;BME280;21840;44.920;8.616;2023-08-01T12:58:29;99129.50;;;38.54;25.23
35716;BME280;21840;44.920;8.616;2023-08-01T13:00:55;99116.78;;;38.34;25.25